Time;durP1;ratioP1;P1;durP2;ratioP2;P2;SDS_P1;SDS_P2;PMS_P1;PMS_P2;Temp;Humidity;BMP_temperature;BMP_pressure;BME280_temperature;BME280_humidity;BME280_pressure;Samples;Min_cycle;Max_cycle;Signal;HPM_P1;HPM_P2
2021/03/09 00:00:07;;;;;;;5.35;2.63;;;6.40;54.40;;;;;;4787981;30;20371;-78
2021/03/09 00:02:34;;;;;;;6.18;2.40;;;6.40;54.60;;;;;;4785602;30;20039;-78
2021/03/09 00:05:00;;;;;;;6.70;2.55;;;6.50;54.30;;;;;;4800159;29;20054;-78
2021/03/09 00:07:26;;;;;;;6.95;2.20;;;6.40;54.30;;;;;;4804585;29;20099;-78
2021/03/09 00:09:51;;;;;;;7.80;3.15;;;6.40;54.60;;;;;;4804353;29;20454;-79
2021/03/09 00:12:17;;;;;;;8.57;2.92;;;6.40;54.30;;;;;;4804361;29;20042;-77
2021/03/09 00:14:43;;;;;;;4.80;2.50;;;6.40;54.20;;;;;;4805908;29;20035;-79
2021/03/09 00:17:08;;;;;;;8.02;2.55;;;6.40;54.10;;;;;;4788175;29;20031;-78
2021/03/09 00:19:34;;;;;;;7.20;2.75;;;6.40;54.20;;;;;;4804219;29;20054;-79
2021/03/09 00:21:59;;;;;;;7.85;3.00;;;6.50;53.90;;;;;;4804153;29;20051;-78
2021/03/09 00:24:25;;;;;;;6.88;3.15;;;6.40;54.10;;;;;;4803923;29;20039;-79
2021/03/09 00:26:51;;;;;;;7.30;3.05;;;6.30;54.00;;;;;;4806038;29;20096;-79
2021/03/09 00:29:16;;;;;;;7.90;3.50;;;6.30;54.00;;;;;;4804074;29;20107;-79
2021/03/09 00:31:42;;;;;;;5.57;3.38;;;6.20;54.10;;;;;;4804007;29;20055;-79
2021/03/09 00:34:08;;;;;;;5.40;2.97;;;6.10;54.40;;;;;;4802974;29;20047;-81
2021/03/09 00:36:33;;;;;;;7.78;3.38;;;6.10;54.30;;;;;;4803105;29;20112;-81
2021/03/09 00:38:59;;;;;;;7.80;3.03;;;6.20;54.20;;;;;;4805805;29;20030;-77
2021/03/09 00:41:24;;;;;;;8.48;3.47;;;6.10;54.30;;;;;;4802997;29;20492;-78
2021/03/09 00:43:50;;;;;;;7.60;3.38;;;6.10;54.40;;;;;;4803734;29;20038;-77
2021/03/09 00:46:16;;;;;;;11.00;3.63;;;6.10;54.30;;;;;;4803814;29;20047;-78
2021/03/09 00:48:42;;;;;;;8.98;3.70;;;6.10;54.40;;;;;;4803376;29;20031;-78
2021/03/09 00:51:08;;;;;;;9.88;4.10;;;6.10;54.40;;;;;;4803687;29;20034;-78
2021/03/09 00:53:34;;;;;;;9.68;4.10;;;6.10;54.60;;;;;;4789391;29;20058;-78
2021/03/09 00:55:59;;;;;;;11.00;3.45;;;6.10;54.80;;;;;;4803935;29;20070;-79
2021/03/09 00:58:25;;;;;;;7.82;3.25;;;6.20;54.70;;;;;;4787464;29;20133;-79
2021/03/09 01:00:51;;;;;;;7.40;3.15;;;6.10;55.00;;;;;;4803953;29;20088;-78
2021/03/09 01:03:17;;;;;;;8.77;3.42;;;6.10;54.70;;;;;;4787420;29;20483;-81
2021/03/09 01:05:43;;;;;;;7.07;3.05;;;6.20;54.70;;;;;;4805032;29;20103;-80
2021/03/09 01:08:08;;;;;;;5.60;3.28;;;6.10;54.70;;;;;;4803530;29;20426;-80
2021/03/09 01:10:35;;;;;;;9.88;3.38;;;6.10;54.90;;;;;;4802629;29;20031;-79
2021/03/09 01:13:00;;;;;;;7.97;3.60;;;6.10;55.50;;;;;;4787400;29;20043;-79
2021/03/09 01:15:27;;;;;;;10.25;3.45;;;6.00;54.80;;;;;;4803324;29;20066;-79
2021/03/09 01:17:52;;;;;;;11.15;3.13;;;6.10;55.00;;;;;;4805181;29;20200;-78
2021/03/09 01:20:18;;;;;;;9.27;3.67;;;6.20;54.90;;;;;;4802381;29;20483;-79
2021/03/09 01:22:44;;;;;;;8.43;3.55;;;6.10;55.00;;;;;;4801988;29;20068;-79
2021/03/09 01:25:09;;;;;;;10.05;3.90;;;6.10;55.00;;;;;;4802359;29;20096;-80
2021/03/09 01:27:35;;;;;;;13.75;4.85;;;6.00;54.90;;;;;;4803378;29;20061;-79
2021/03/09 01:30:02;;;;;;;9.05;3.60;;;6.00;55.20;;;;;;4805085;29;20058;-77
2021/03/09 01:32:28;;;;;;;7.75;3.33;;;5.90;55.30;;;;;;4803467;29;20054;-79
2021/03/09 01:34:53;;;;;;;7.53;3.75;;;5.90;55.40;;;;;;4803073;29;20123;-78
2021/03/09 01:37:19;;;;;;;10.23;3.83;;;6.00;55.60;;;;;;4803017;29;20126;-78
2021/03/09 01:39:44;;;;;;;10.77;4.15;;;6.00;55.40;;;;;;4803033;29;20061;-79
2021/03/09 01:42:10;;;;;;;8.15;3.83;;;6.00;55.60;;;;;;4802620;29;20109;-78
2021/03/09 01:44:36;;;;;;;8.38;3.10;;;5.90;55.70;;;;;;4804615;29;20050;-80
2021/03/09 01:47:03;;;;;;;9.40;4.45;;;6.00;55.70;;;;;;4803219;29;20377;-81
2021/03/09 01:49:32;;;;;;;8.88;3.63;;;6.10;55.70;;;;;;4787256;29;20047;-81
2021/03/09 01:51:58;;;;;;;6.90;3.63;;;6.10;55.70;;;;;;4802805;29;20043;-80
2021/03/09 01:54:24;;;;;;;7.68;4.00;;;6.10;55.70;;;;;;4786523;29;20130;-80
2021/03/09 01:56:50;;;;;;;9.60;3.90;;;6.10;55.70;;;;;;4788406;29;20118;-80
2021/03/09 01:59:17;;;;;;;8.13;3.80;;;6.10;55.90;;;;;;4786403;29;20547;-76
2021/03/09 02:01:43;;;;;;;9.43;3.95;;;6.00;56.10;;;;;;4786489;29;20534;-78
2021/03/09 02:04:10;;;;;;;8.18;3.97;;;6.00;56.30;;;;;;4802651;29;20135;-76
2021/03/09 02:06:36;;;;;;;7.13;3.90;;;5.90;56.30;;;;;;4802744;29;20031;-77
2021/03/09 02:09:03;;;;;;;8.38;3.88;;;6.00;56.20;;;;;;4788264;29;20657;-76
2021/03/09 02:11:49;;;;;;;9.68;4.22;;;6.10;56.40;;;;;;4786598;29;20031;-76
2021/03/09 02:14:29;;;;;;;9.50;4.35;;;6.10;56.40;;;;;;4802504;29;20058;-76
2021/03/09 02:17:20;;;;;;;9.32;3.63;;;6.00;56.50;;;;;;4786297;29;20043;-77
2021/03/09 02:20:24;;;;;;;8.48;4.15;;;6.10;56.40;;;;;;4802741;29;20031;-79
2021/03/09 02:22:49;;;;;;;10.18;4.93;;;6.10;56.50;;;;;;4802546;29;20135;-77
2021/03/09 02:25:27;;;;;;;8.85;4.15;;;6.10;56.50;;;;;;4802404;29;20125;-78
2021/03/09 02:28:25;;;;;;;8.05;3.90;;;6.20;56.60;;;;;;4802367;29;20043;-78
2021/03/09 02:30:53;;;;;;;10.38;4.22;;;6.30;56.60;;;;;;4802528;29;20050;-77
2021/03/09 02:33:21;;;;;;;11.98;4.05;;;6.30;56.60;;;;;;4786226;29;20485;-76
2021/03/09 02:36:07;;;;;;;16.98;4.47;;;6.20;56.60;;;;;;4810872;29;20514;-76
2021/03/09 02:38:45;;;;;;;6.65;4.03;;;6.20;56.70;;;;;;4805084;29;20391;-77
2021/03/09 02:41:13;;;;;;;13.48;4.35;;;6.20;56.50;;;;;;4820784;29;20039;-78
2021/03/09 02:43:42;;;;;;;8.05;3.90;;;6.20;56.50;;;;;;4804441;29;20408;-78
2021/03/09 02:46:09;;;;;;;13.95;4.63;;;6.20;56.60;;;;;;4820555;29;20042;-78
2021/03/09 02:48:36;;;;;;;9.02;4.32;;;6.30;56.70;;;;;;4820364;29;20057;-77
2021/03/09 02:51:03;;;;;;;14.20;4.50;;;6.20;56.60;;;;;;4821957;29;20425;-77
2021/03/09 02:53:32;;;;;;;12.63;4.68;;;6.20;56.90;;;;;;4804313;29;20537;-77
2021/03/09 02:56:01;;;;;;;11.35;4.53;;;6.20;57.40;;;;;;4820514;29;20479;-78
2021/03/09 02:58:28;;;;;;;10.50;4.78;;;6.20;57.30;;;;;;4820478;29;20117;-77
2021/03/09 03:00:55;;;;;;;12.90;4.22;;;6.30;57.50;;;;;;4820331;29;20364;-77
2021/03/09 03:03:22;;;;;;;11.27;3.95;;;6.20;57.50;;;;;;4819849;29;20026;-77
2021/03/09 03:05:48;;;;;;;9.18;4.35;;;6.20;57.50;;;;;;4821980;29;20056;-79
2021/03/09 03:08:15;;;;;;;7.82;4.13;;;6.20;57.30;;;;;;4820334;29;20125;-78
2021/03/09 03:10:44;;;;;;;10.77;4.97;;;6.20;57.30;;;;;;4820387;29;20347;-77
2021/03/09 03:13:11;;;;;;;11.70;4.93;;;6.10;57.60;;;;;;4823251;29;20049;-78
2021/03/09 03:15:38;;;;;;;11.50;4.73;;;6.20;57.60;;;;;;4823454;29;20113;-77
2021/03/09 03:18:05;;;;;;;12.23;4.68;;;6.20;57.80;;;;;;4825250;29;20022;-77
2021/03/09 03:20:32;;;;;;;10.85;4.80;;;6.30;57.90;;;;;;4823577;29;20185;-78
2021/03/09 03:22:59;;;;;;;12.27;5.25;;;6.30;57.80;;;;;;4823692;29;20362;-77
2021/03/09 03:25:25;;;;;;;16.92;5.32;;;6.20;57.90;;;;;;4823174;29;20489;-77
2021/03/09 03:27:52;;;;;;;12.75;4.65;;;6.30;58.10;;;;;;4823248;29;20045;-77
2021/03/09 03:30:19;;;;;;;10.85;4.47;;;6.20;58.30;;;;;;4823579;29;20525;-78
2021/03/09 03:32:46;;;;;;;11.90;5.00;;;6.30;58.30;;;;;;4808875;29;20031;-78
2021/03/09 03:35:13;;;;;;;11.75;5.45;;;6.30;58.70;;;;;;4823256;29;20046;-79
2021/03/09 03:37:41;;;;;;;10.23;5.13;;;6.30;58.40;;;;;;4823385;29;20047;-78
2021/03/09 03:40:11;;;;;;;11.40;4.85;;;6.40;58.60;;;;;;4823232;29;20042;-78
2021/03/09 03:42:38;;;;;;;11.95;5.07;;;6.30;58.40;;;;;;4807142;29;20110;-78
2021/03/09 03:45:06;;;;;;;13.35;5.88;;;6.30;58.60;;;;;;4808547;29;20117;-79
2021/03/09 03:47:31;;;;;;;11.90;5.97;;;6.30;58.70;;;;;;4807028;29;20426;-79
2021/03/09 03:49:57;;;;;;;11.52;5.65;;;6.20;58.80;;;;;;4823136;29;20073;-80
2021/03/09 03:52:58;;;;;;;15.80;5.80;;;6.30;59.10;;;;;;4822954;29;20509;-78
2021/03/09 03:55:38;;;;;;;11.13;5.32;;;6.20;59.00;;;;;;4822887;29;20043;-79
2021/03/09 03:58:27;;;;;;;15.00;5.10;;;6.20;59.30;;;;;;4822791;29;20066;-78
2021/03/09 04:00:52;;;;;;;14.38;4.85;;;6.30;59.40;;;;;;4806798;29;20038;-76
2021/03/09 04:03:19;;;;;;;13.68;5.43;;;6.40;59.70;;;;;;4822678;29;20059;-78
2021/03/09 04:05:48;;;;;;;14.02;5.25;;;6.30;59.40;;;;;;4808484;29;20042;-76
2021/03/09 04:08:16;;;;;;;10.50;5.30;;;6.30;59.50;;;;;;4822665;29;20045;-77
2021/03/09 04:10:43;;;;;;;12.93;5.82;;;6.30;59.90;;;;;;4822684;29;20042;-76
2021/03/09 04:13:09;;;;;;;9.32;4.82;;;6.30;60.40;;;;;;4822377;29;20041;-77
2021/03/09 04:15:37;;;;;;;12.68;5.32;;;6.30;60.30;;;;;;4822514;29;20461;-77
2021/03/09 04:18:07;;;;;;;10.45;4.93;;;6.30;60.40;;;;;;4824260;29;20726;-76
2021/03/09 04:20:35;;;;;;;14.93;5.75;;;6.30;60.70;;;;;;4822783;29;20051;-77
2021/03/09 04:23:03;;;;;;;11.38;5.22;;;6.30;61.10;;;;;;4821561;29;20057;-79
2021/03/09 04:25:29;;;;;;;;;;;6.40;61.40;;;;;;4805918;29;20030;-79
2021/03/09 04:27:55;;;;;;;10.45;4.55;;;6.30;61.60;;;;;;4822439;29;19912;-77
2021/03/09 04:30:21;;;;;;;12.63;5.57;;;6.30;62.30;;;;;;4822176;29;20034;-77
2021/03/09 04:32:47;;;;;;;9.05;4.90;;;6.20;62.80;;;;;;4807614;29;20027;-79
2021/03/09 04:35:13;;;;;;;12.30;5.07;;;6.10;63.90;;;;;;4806207;29;20122;-78
2021/03/09 04:37:41;;;;;;;9.82;4.53;;;6.00;65.10;;;;;;4822094;29;20121;-77
2021/03/09 04:40:07;;;;;;;8.38;3.88;;;6.00;66.00;;;;;;4822064;29;20119;-76
2021/03/09 04:42:33;;;;;;;11.75;3.78;;;6.10;66.40;;;;;;4805742;29;20065;-75
2021/03/09 04:44:59;;;;;;;10.10;4.68;;;6.00;67.50;;;;;;4823685;29;20349;-76
2021/03/09 04:47:26;;;;;;;8.05;4.30;;;5.90;69.40;;;;;;4805758;29;20038;-77
2021/03/09 04:49:56;;;;;;;11.55;3.50;;;6.00;70.40;;;;;;4821838;29;20040;-77
2021/03/09 04:52:23;;;;;;;7.70;3.90;;;5.80;72.40;;;;;;4821921;29;20645;-78
2021/03/09 04:54:49;;;;;;;13.25;4.57;;;5.80;74.90;;;;;;4821709;29;20454;-77
2021/03/09 04:57:15;;;;;;;8.27;3.90;;;5.80;76.30;;;;;;4805741;29;20161;-76
2021/03/09 04:59:40;;;;;;;8.02;3.58;;;5.70;77.50;;;;;;4823436;29;20038;-77
2021/03/09 05:02:08;;;;;;;9.02;4.13;;;5.80;78.60;;;;;;4805605;29;20107;-75
2021/03/09 05:04:33;;;;;;;6.25;3.15;;;5.80;79.70;;;;;;4821623;29;20398;-72
2021/03/09 05:06:59;;;;;;;8.00;3.97;;;5.80;80.30;;;;;;4821660;29;20050;-74
2021/03/09 05:09:24;;;;;;;9.40;4.53;;;5.80;81.80;;;;;;4821409;29;20035;-74
2021/03/09 05:11:50;;;;;;;9.07;4.32;;;5.80;82.20;;;;;;4823213;29;20034;-74
2021/03/09 05:14:16;;;;;;;10.30;4.75;;;5.90;83.20;;;;;;4821524;29;20045;-77
2021/03/09 05:16:41;;;;;;;9.93;5.15;;;6.00;82.80;;;;;;4821626;29;20043;-80
2021/03/09 05:19:07;;;;;;;12.77;5.30;;;5.80;83.90;;;;;;4805346;29;20859;-79
2021/03/09 05:21:32;;;;;;;13.52;6.05;;;5.70;84.80;;;;;;4821112;29;20034;-78
2021/03/09 05:23:59;;;;;;;9.93;5.07;;;5.60;86.50;;;;;;4807051;29;20136;-78
2021/03/09 05:26:27;;;;;;;13.70;5.45;;;5.60;87.30;;;;;;4821499;29;20042;-78
2021/03/09 05:28:52;;;;;;;;;;;5.60;87.90;;;;;;4822241;29;20049;-79
2021/03/09 05:31:18;;;;;;;11.50;5.03;;;5.60;89.40;;;;;;4821356;29;19912;-78
2021/03/09 05:33:43;;;;;;;18.02;5.82;;;5.50;90.30;;;;;;4805115;29;20038;-80
2021/03/09 05:36:09;;;;;;;14.18;6.00;;;5.50;90.50;;;;;;4821529;29;20033;-79
2021/03/09 05:38:35;;;;;;;11.98;6.30;;;5.50;91.10;;;;;;4823126;29;20485;-79
2021/03/09 05:41:02;;;;;;;14.10;6.80;;;5.40;91.50;;;;;;4805408;29;20090;-80
2021/03/09 05:43:30;;;;;;;13.30;6.15;;;5.40;91.90;;;;;;4805471;29;20038;-79
2021/03/09 05:45:56;;;;;;;13.50;6.18;;;5.50;92.00;;;;;;4821657;29;20385;-79
2021/03/09 05:48:22;;;;;;;15.68;6.40;;;5.50;92.10;;;;;;4821247;29;20450;-78
2021/03/09 05:50:47;;;;;;;16.50;6.50;;;5.30;92.60;;;;;;4806906;29;20031;-78
2021/03/09 05:53:14;;;;;;;16.08;6.70;;;5.30;92.80;;;;;;4821012;29;20428;-80
2021/03/09 05:55:40;;;;;;;17.98;6.45;;;5.40;93.10;;;;;;4821052;29;20187;-80
2021/03/09 05:58:06;;;;;;;15.48;6.70;;;5.30;93.20;;;;;;4821050;29;20125;-80
2021/03/09 06:00:32;;;;;;;14.63;6.57;;;5.20;93.40;;;;;;4821046;29;20142;-80
2021/03/09 06:02:57;;;;;;;15.43;6.45;;;5.30;93.70;;;;;;4806460;29;20115;-78
2021/03/09 06:05:23;;;;;;;19.58;7.38;;;5.20;93.90;;;;;;4804520;29;20070;-79
2021/03/09 06:07:52;;;;;;;12.23;6.55;;;5.20;94.20;;;;;;4804583;29;20046;-79
2021/03/09 06:10:20;;;;;;;17.48;7.53;;;5.00;94.50;;;;;;4804679;29;20046;-77
2021/03/09 06:12:46;;;;;;;13.38;6.78;;;5.00;94.90;;;;;;4820575;29;20027;-78
2021/03/09 06:15:12;;;;;;;17.38;8.32;;;5.00;94.70;;;;;;4804486;29;20027;-78
2021/03/09 06:17:39;;;;;;;15.30;6.93;;;4.90;94.90;;;;;;4822379;29;20034;-78
2021/03/09 06:20:19;;;;;;;17.73;7.88;;;5.10;95.00;;;;;;4820722;29;20074;-80
2021/03/09 06:22:58;;;;;;;20.77;8.63;;;4.80;95.50;;;;;;4804724;29;20095;-79
2021/03/09 06:25:39;;;;;;;14.13;7.40;;;5.00;95.30;;;;;;4821149;29;20069;-79
2021/03/09 06:28:06;;;;;;;17.27;7.70;;;5.00;95.40;;;;;;4822309;29;20031;-79
2021/03/09 06:30:34;;;;;;;20.17;8.90;;;4.90;95.40;;;;;;4820560;29;20113;-79
2021/03/09 06:33:01;;;;;;;24.33;8.50;;;4.90;95.40;;;;;;4822024;29;20162;-78
2021/03/09 06:35:37;;;;;;;17.63;8.32;;;4.80;95.70;;;;;;4820525;29;20057;-81
2021/03/09 06:38:24;;;;;;;20.48;8.30;;;4.80;95.70;;;;;;4820987;29;20046;-81
2021/03/09 06:41:15;;;;;;;26.17;10.25;;;4.80;95.80;;;;;;4820779;29;20054;-81
2021/03/09 06:43:46;;;;;;;25.08;9.98;;;4.80;95.80;;;;;;4821338;29;20042;-80
2021/03/09 06:46:20;;;;;;;20.13;9.98;;;4.70;96.20;;;;;;4822711;29;20533;-80
2021/03/09 06:48:49;;;;;;;21.05;8.80;;;4.60;96.30;;;;;;4825651;29;20469;-83
2021/03/09 06:51:24;;;;;;;21.92;9.98;;;4.70;96.20;;;;;;4825390;29;20503;-80
2021/03/09 06:54:08;;;;;;;24.45;10.48;;;4.70;96.20;;;;;;4811494;29;20402;-81
2021/03/09 06:56:35;;;;;;;25.98;10.98;;;4.60;96.40;;;;;;4810232;29;20473;-79
2021/03/09 06:59:21;;;;;;;26.25;11.88;;;4.70;96.40;;;;;;4806654;29;20055;-82
2021/03/09 07:02:05;;;;;;;26.98;12.13;;;4.50;96.60;;;;;;4807799;29;20091;-82
2021/03/09 07:04:31;;;;;;;28.10;11.95;;;4.60;96.50;;;;;;4791590;29;20555;-82
2021/03/09 07:06:56;;;;;;;27.27;11.27;;;4.60;96.80;;;;;;4792001;29;20068;-83
2021/03/09 07:09:22;;;;;;;27.40;10.82;;;4.60;96.60;;;;;;4808687;29;20022;-83
2021/03/09 07:11:48;;;;;;;26.60;12.35;;;4.50;96.80;;;;;;4810704;29;20039;-85
2021/03/09 07:14:16;;;;;;;29.38;12.80;;;4.50;96.90;;;;;;4791681;29;20039;-82
2021/03/09 07:16:47;;;;;;;29.10;13.25;;;4.50;96.80;;;;;;4791164;29;20038;-82
2021/03/09 07:19:15;;;;;;;26.90;11.23;;;4.60;96.70;;;;;;4807027;29;20053;-83
2021/03/09 07:21:42;;;;;;;29.63;12.63;;;4.50;97.10;;;;;;4807342;29;20133;-83
2021/03/09 07:24:08;;;;;;;28.00;13.18;;;4.50;96.90;;;;;;4807241;29;20035;-83
2021/03/09 07:26:38;;;;;;;25.05;11.18;;;4.50;97.10;;;;;;4808850;29;20051;-84
2021/03/09 07:29:11;;;;;;;28.55;12.48;;;4.50;97.00;;;;;;4807494;29;20625;-86
2021/03/09 07:31:40;;;;;;;29.25;12.23;;;4.60;97.00;;;;;;4806976;29;20130;-83
2021/03/09 07:34:07;;;;;;;30.45;12.27;;;4.70;97.10;;;;;;4806725;29;20133;-80
2021/03/09 07:36:34;;;;;;;30.17;13.75;;;4.70;97.10;;;;;;4790172;29;20035;-80
2021/03/09 07:39:01;;;;;;;33.58;12.38;;;4.70;96.90;;;;;;4808533;29;20027;-84
2021/03/09 07:41:27;;;;;;;27.58;12.38;;;4.70;96.90;;;;;;4807353;29;20488;-84
2021/03/09 07:43:54;;;;;;;32.15;12.15;;;4.70;97.00;;;;;;4790796;29;20035;-81
2021/03/09 07:46:20;;;;;;;28.70;12.80;;;4.70;97.00;;;;;;4805112;29;20054;-82
2021/03/09 07:48:46;;;;;;;31.70;13.98;;;4.70;97.10;;;;;;4805102;29;20038;-83
2021/03/09 07:51:11;;;;;;;28.83;14.02;;;4.70;97.00;;;;;;4805468;29;20049;-83
2021/03/09 07:53:37;;;;;;;29.63;13.10;;;4.70;96.90;;;;;;4807106;29;20041;-85
2021/03/09 07:56:08;;;;;;;31.65;13.52;;;4.70;97.00;;;;;;4805045;29;20047;-82
2021/03/09 07:58:35;;;;;;;30.85;12.65;;;4.50;97.30;;;;;;4803811;29;20034;-81
2021/03/09 08:01:05;;;;;;;33.90;14.30;;;4.50;97.40;;;;;;4805275;29;20092;-83
2021/03/09 08:03:36;;;;;;;32.28;13.13;;;4.50;97.60;;;;;;4789021;29;20466;-84
2021/03/09 08:06:15;;;;;;;31.00;12.40;;;4.60;97.20;;;;;;4806600;29;20031;-82
2021/03/09 08:08:49;;;;;;;33.28;15.10;;;4.40;97.50;;;;;;4804734;29;20374;-84
2021/03/09 08:11:24;;;;;;;31.70;13.43;;;4.40;97.70;;;;;;4804917;29;20462;-83
2021/03/09 08:14:13;;;;;;;27.60;12.65;;;4.50;97.50;;;;;;4789099;29;20039;-84
2021/03/09 08:16:42;;;;;;;30.23;13.77;;;4.50;97.80;;;;;;4805335;29;20043;-84
2021/03/09 08:19:13;;;;;;;28.67;13.05;;;4.60;97.50;;;;;;4788815;29;20045;-85
2021/03/09 08:21:39;;;;;;;32.67;14.68;;;4.50;97.40;;;;;;4789439;29;20031;-84
2021/03/09 08:24:06;;;;;;;31.55;13.80;;;4.60;97.30;;;;;;4790425;29;20041;-83
2021/03/09 08:26:31;;;;;;;30.30;14.20;;;4.40;97.30;;;;;;4805387;29;20042;-84
2021/03/09 08:28:57;;;;;;;28.88;14.05;;;4.50;97.40;;;;;;4789072;29;20626;-82
2021/03/09 08:31:27;;;;;;;31.70;14.52;;;4.50;97.50;;;;;;4805182;29;20046;-84
2021/03/09 08:34:08;;;;;;;32.33;13.10;;;4.50;97.50;;;;;;4805183;29;20034;-85
2021/03/09 08:36:36;;;;;;;28.02;13.60;;;4.40;97.80;;;;;;4788314;29;20126;-83
2021/03/09 08:39:05;;;;;;;31.92;14.20;;;4.40;97.80;;;;;;4806140;29;20027;-85
2021/03/09 08:41:38;;;;;;;34.72;17.38;;;4.40;97.90;;;;;;4804618;29;20039;-84
2021/03/09 08:44:16;;;;;;;34.80;13.77;;;4.40;98.00;;;;;;4804259;29;20521;-83
2021/03/09 08:47:11;;;;;;;31.15;13.55;;;4.40;98.10;;;;;;4788484;29;20524;-83
2021/03/09 08:49:37;;;;;;;29.02;12.85;;;4.40;98.00;;;;;;4804568;29;20045;-84
2021/03/09 08:52:14;;;;;;;28.02;13.27;;;4.50;98.00;;;;;;4804654;29;20094;-83
2021/03/09 08:54:41;;;;;;;32.22;13.63;;;4.50;97.90;;;;;;4804383;29;20062;-84
2021/03/09 08:57:14;;;;;;;31.30;13.10;;;4.50;98.10;;;;;;4803816;29;20114;-83
2021/03/09 08:59:43;;;;;;;27.98;13.30;;;4.50;98.30;;;;;;4805435;29;20027;-81
2021/03/09 09:02:13;;;;;;;28.40;13.40;;;4.50;98.00;;;;;;4803836;29;20641;-81
2021/03/09 09:04:41;;;;;;;32.33;14.20;;;4.40;98.20;;;;;;4784540;30;20202;-82
2021/03/09 09:07:36;;;;;;;29.98;13.52;;;4.50;98.10;;;;;;4785737;29;20047;-84
2021/03/09 09:10:07;;;;;;;30.00;13.40;;;4.50;98.10;;;;;;4784370;29;20053;-84
2021/03/09 09:12:38;;;;;;;35.67;14.38;;;4.50;98.10;;;;;;4785933;29;20035;-84
2021/03/09 09:15:12;;;;;;;44.15;20.15;;;4.40;98.30;;;;;;4787519;29;20035;-83
2021/03/09 09:17:47;;;;;;;31.92;15.07;;;4.40;98.30;;;;;;4784995;30;20036;-84
2021/03/09 09:20:20;;;;;;;26.83;13.18;;;4.40;98.50;;;;;;4786297;29;20039;-83
2021/03/09 09:22:46;;;;;;;29.75;13.40;;;4.40;98.40;;;;;;4786059;29;20048;-84
2021/03/09 09:25:14;;;;;;;27.73;13.50;;;4.40;98.50;;;;;;4787812;29;20054;-84
2021/03/09 09:27:45;;;;;;;32.00;12.95;;;4.50;98.30;;;;;;4786054;29;20522;-85
2021/03/09 09:30:16;;;;;;;30.10;13.85;;;4.60;98.30;;;;;;4784568;29;20396;-83
2021/03/09 09:33:05;;;;;;;31.42;14.27;;;4.50;98.30;;;;;;4786054;30;20362;-84
2021/03/09 09:35:32;;;;;;;29.55;13.35;;;4.50;98.40;;;;;;4785394;29;20301;-82
2021/03/09 09:38:11;;;;;;;29.98;12.93;;;4.50;98.40;;;;;;4784107;30;20043;-82
2021/03/09 09:40:40;;;;;;;29.95;12.77;;;4.50;98.30;;;;;;4784492;29;20063;-82
2021/03/09 09:43:17;;;;;;;31.83;13.35;;;4.40;98.60;;;;;;4788237;29;20103;-83
2021/03/09 09:45:48;;;;;;;29.77;13.25;;;4.50;98.40;;;;;;4785070;29;20039;-83
2021/03/09 09:48:17;;;;;;;27.95;12.95;;;4.40;98.30;;;;;;4785549;29;20042;-84
2021/03/09 09:50:51;;;;;;;28.55;13.15;;;4.30;98.50;;;;;;4785972;30;20067;-83
2021/03/09 09:53:34;;;;;;;27.35;12.90;;;4.30;98.70;;;;;;4785108;29;20071;-83
2021/03/09 09:56:00;;;;;;;30.27;13.70;;;4.30;98.60;;;;;;4785279;29;20035;-83
2021/03/09 09:58:41;;;;;;;31.55;13.23;;;4.40;98.80;;;;;;4785136;29;20070;-82
2021/03/09 10:01:06;;;;;;;28.55;12.70;;;4.20;98.70;;;;;;4784602;29;20427;-84
2021/03/09 10:03:32;;;;;;;29.48;12.80;;;4.40;98.70;;;;;;4801148;29;20055;-86
2021/03/09 10:06:15;;;;;;;31.05;13.35;;;4.40;98.70;;;;;;4804848;29;20335;-82
2021/03/09 10:08:41;;;;;;;26.60;12.85;;;4.40;98.70;;;;;;4787285;29;20074;-80
2021/03/09 10:11:07;;;;;;;26.92;13.00;;;4.50;98.60;;;;;;4802678;29;20097;-82
2021/03/09 10:13:32;;;;;;;32.35;14.75;;;4.50;98.50;;;;;;4802984;29;20541;-86
2021/03/09 10:15:58;;;;;;;27.40;13.07;;;4.50;98.60;;;;;;4786835;29;20043;-82
2021/03/09 10:18:35;;;;;;;28.95;13.68;;;4.50;98.50;;;;;;4802564;29;20031;-84
2021/03/09 10:21:05;;;;;;;34.20;14.57;;;4.50;98.60;;;;;;4804454;29;20382;-81
2021/03/09 10:23:50;;;;;;;24.80;11.45;;;4.50;98.70;;;;;;4804738;29;20038;-83
2021/03/09 10:26:28;;;;;;;26.55;12.80;;;4.60;98.80;;;;;;4804146;29;20082;-82
2021/03/09 10:29:14;;;;;;;;;;;4.50;98.70;;;;;;4789183;29;20050;-82
2021/03/09 10:31:47;;;;;;;29.42;12.60;;;4.50;98.80;;;;;;4803332;29;19918;-84
2021/03/09 10:34:14;;;;;;;28.90;12.65;;;4.50;98.80;;;;;;4787415;29;20046;-81
2021/03/09 10:36:50;;;;;;;30.42;13.00;;;4.50;98.80;;;;;;4803397;29;20034;-80
2021/03/09 10:39:16;;;;;;;29.48;12.57;;;4.50;98.70;;;;;;4787559;29;20083;-82
2021/03/09 10:41:41;;;;;;;29.23;13.30;;;4.40;98.90;;;;;;4805010;29;20134;-82
2021/03/09 10:44:35;;;;;;;26.27;12.85;;;4.50;98.80;;;;;;4802412;29;20601;-82
2021/03/09 10:47:04;;;;;;;27.02;12.27;;;4.40;99.00;;;;;;4786693;29;20129;-83
2021/03/09 10:49:32;;;;;;;27.40;13.32;;;4.50;98.80;;;;;;4802999;29;20043;-82
2021/03/09 10:51:59;;;;;;;26.80;12.73;;;4.60;98.60;;;;;;4786845;29;20121;-81
2021/03/09 10:54:24;;;;;;;29.30;13.45;;;4.50;98.70;;;;;;4802655;29;20293;-82
2021/03/09 10:56:51;;;;;;;27.88;13.10;;;4.60;98.70;;;;;;4804350;29;20354;-82
2021/03/09 10:59:17;;;;;;;29.88;12.38;;;4.60;98.70;;;;;;4786623;29;20342;-83
2021/03/09 11:01:44;;;;;;;28.52;12.98;;;4.60;98.70;;;;;;4802547;29;20047;-84
2021/03/09 11:04:09;;;;;;;29.25;13.82;;;4.70;98.70;;;;;;4802415;29;20054;-83
2021/03/09 11:06:35;;;;;;;26.15;13.15;;;4.80;98.70;;;;;;4802799;29;20051;-83
2021/03/09 11:09:01;;;;;;;27.05;13.20;;;4.80;98.60;;;;;;4803990;29;20090;-83
2021/03/09 11:11:28;;;;;;;34.15;13.32;;;4.70;98.70;;;;;;4802396;29;20062;-83
2021/03/09 11:13:53;;;;;;;25.17;12.38;;;4.90;98.80;;;;;;4802347;29;20062;-82
2021/03/09 11:16:19;;;;;;;27.95;13.00;;;4.90;98.80;;;;;;4802129;29;20041;-83
2021/03/09 11:18:45;;;;;;;26.55;12.95;;;4.90;98.60;;;;;;4786154;29;20035;-82
2021/03/09 11:21:10;;;;;;;23.50;12.13;;;4.90;98.80;;;;;;4785892;29;20030;-81
2021/03/09 11:23:39;;;;;;;27.15;13.48;;;4.90;98.90;;;;;;4803521;29;20046;-83
2021/03/09 11:26:08;;;;;;;30.73;14.55;;;4.90;98.90;;;;;;4786318;29;20080;-83
2021/03/09 11:28:34;;;;;;;28.40;13.25;;;5.00;98.70;;;;;;4802013;29;20078;-83
2021/03/09 11:31:00;;;;;;;25.75;12.95;;;4.90;98.90;;;;;;4802147;29;20441;-82
2021/03/09 11:33:25;;;;;;;27.60;12.15;;;5.00;98.80;;;;;;4803921;29;20055;-82
2021/03/09 11:35:51;;;;;;;26.15;12.50;;;5.00;99.00;;;;;;4790942;29;20027;-82
2021/03/09 11:38:20;;;;;;;25.67;12.55;;;5.00;99.00;;;;;;4789562;29;20042;-86
2021/03/09 11:40:46;;;;;;;29.88;13.18;;;5.00;98.90;;;;;;4805425;29;20030;-82
2021/03/09 11:43:11;;;;;;;30.00;12.75;;;5.00;98.90;;;;;;4789088;29;20125;-83
2021/03/09 11:45:37;;;;;;;26.02;11.98;;;5.00;99.10;;;;;;4804938;29;20061;-81
2021/03/09 11:48:03;;;;;;;26.33;13.75;;;5.00;99.10;;;;;;4790312;29;20546;-82
2021/03/09 11:50:29;;;;;;;23.38;12.07;;;5.10;99.40;;;;;;4803671;29;20038;-83
2021/03/09 11:52:55;;;;;;;27.50;13.30;;;5.10;99.20;;;;;;4788604;29;20118;-82
2021/03/09 11:55:21;;;;;;;23.95;13.10;;;5.10;99.10;;;;;;4804772;29;20038;-83
2021/03/09 11:57:46;;;;;;;27.25;12.85;;;5.10;99.00;;;;;;4788267;29;20054;-82
2021/03/09 12:00:13;;;;;;;27.60;13.35;;;5.10;99.10;;;;;;4805126;29;20434;-82
2021/03/09 12:02:38;;;;;;;25.95;12.18;;;5.10;99.10;;;;;;4806230;29;20106;-84
2021/03/09 12:05:06;;;;;;;30.63;13.10;;;5.10;99.10;;;;;;4804252;29;20071;-81
2021/03/09 12:07:31;;;;;;;29.27;13.02;;;5.10;99.00;;;;;;4787823;29;20043;-83
2021/03/09 12:09:57;;;;;;;28.25;12.10;;;5.20;99.30;;;;;;4804770;29;20035;-82
2021/03/09 12:12:22;;;;;;;26.60;12.63;;;5.20;99.30;;;;;;4804640;29;20060;-81
2021/03/09 12:14:48;;;;;;;22.50;12.13;;;5.30;98.90;;;;;;4790459;29;20023;-82
2021/03/09 12:17:14;;;;;;;27.15;13.77;;;5.30;98.80;;;;;;4804736;29;20043;-83
2021/03/09 12:19:39;;;;;;;24.20;11.82;;;5.30;98.70;;;;;;4804455;29;20383;-81
2021/03/09 12:22:06;;;;;;;28.00;13.43;;;5.20;98.80;;;;;;4788163;29;20149;-83
2021/03/09 12:24:31;;;;;;;28.13;12.50;;;5.30;98.90;;;;;;4788460;29;20446;-85
2021/03/09 12:26:57;;;;;;;25.95;12.90;;;5.30;98.90;;;;;;4805925;29;20119;-83
2021/03/09 12:29:23;;;;;;;23.50;12.18;;;5.30;99.00;;;;;;4788206;29;20466;-83
2021/03/09 12:31:48;;;;;;;27.23;12.50;;;5.30;99.10;;;;;;4804394;29;20119;-82
2021/03/09 12:34:14;;;;;;;26.80;13.50;;;5.30;99.10;;;;;;4804150;29;20074;-84
2021/03/09 12:36:39;;;;;;;26.80;12.82;;;5.30;99.20;;;;;;4787627;29;20142;-83
2021/03/09 12:39:05;;;;;;;25.90;12.25;;;5.40;99.00;;;;;;4805579;29;20135;-84
2021/03/09 12:41:31;;;;;;;34.22;13.70;;;5.40;99.00;;;;;;4800015;29;20046;-84
2021/03/09 12:43:58;;;;;;;26.00;13.07;;;5.50;99.00;;;;;;4803751;29;20485;-83
2021/03/09 12:46:23;;;;;;;22.95;11.70;;;5.40;99.20;;;;;;4788632;29;20226;-82
2021/03/09 12:48:49;;;;;;;24.10;12.50;;;5.50;99.20;;;;;;4804460;29;20413;-83
2021/03/09 12:51:15;;;;;;;29.05;13.30;;;5.50;99.20;;;;;;4803948;29;20041;-82
2021/03/09 12:53:40;;;;;;;24.02;12.73;;;5.50;99.20;;;;;;4805645;29;20075;-83